createdAt,value
2023-04-24T00:01:35.154Z,97170.09
2023-04-24T00:04:41.258Z,97176.47
2023-04-24T00:07:45.935Z,97173.13
2023-04-24T00:10:50.190Z,97169.78
2023-04-24T00:13:53.015Z,97174.19
2023-04-24T00:16:55.758Z,97182.13
2023-04-24T00:20:00.136Z,97192.63
2023-04-24T00:23:02.940Z,97183.91
2023-04-24T00:26:07.102Z,97187.84
2023-04-24T00:29:09.994Z,97191.66
2023-04-24T00:32:12.924Z,97185.97
2023-04-24T00:35:15.980Z,97191.16
2023-04-24T00:38:18.665Z,97197.22
2023-04-24T00:41:22.952Z,97188.19
2023-04-24T00:44:25.887Z,97180.59
2023-04-24T00:47:29.016Z,97180.09
2023-04-24T00:50:31.958Z,97185.81
2023-04-24T00:53:34.678Z,97173.44
2023-04-24T00:56:38.924Z,97172.81
2023-04-24T00:59:42.161Z,97172.81
2023-04-24T01:02:46.575Z,97172.47
2023-04-24T01:05:49.840Z,97163.78
2023-04-24T01:08:52.630Z,97161.09
2023-04-24T01:11:57.598Z,97163.00
2023-04-24T01:15:00.379Z,97157.44
2023-04-24T01:18:03.444Z,97159.19
2023-04-24T01:21:07.170Z,97149.69
2023-04-24T01:24:11.255Z,97145.09
2023-04-24T01:27:14.467Z,97152.84
2023-04-24T01:30:17.150Z,97146.03
2023-04-24T01:33:21.506Z,97144.75
2023-04-24T01:36:27.218Z,97136.84
2023-04-24T01:39:31.366Z,97135.41
2023-04-24T01:42:34.291Z,97129.25
2023-04-24T01:45:37.088Z,97128.94
2023-04-24T01:48:39.916Z,97131.16
2023-04-24T01:51:42.606Z,97136.06
2023-04-24T01:54:46.994Z,97134.94
2023-04-24T01:57:49.709Z,97129.88
2023-04-24T02:00:52.512Z,97124.81
2023-04-24T02:03:55.300Z,97134.63
2023-04-24T02:06:58.017Z,97131.78
2023-04-24T02:10:02.275Z,97131.78
2023-04-24T02:13:05.744Z,97136.06
2023-04-24T02:16:08.482Z,97136.53
2023-04-24T02:19:11.420Z,97132.41
2023-04-24T02:22:14.238Z,97141.75
2023-04-24T02:25:18.729Z,97141.72
2023-04-24T02:28:21.596Z,97144.13
2023-04-24T02:31:24.324Z,97140.16
2023-04-24T02:34:27.140Z,97147.91
2023-04-24T02:37:29.841Z,97158.22
2023-04-24T02:40:34.174Z,97152.66
2023-04-24T02:43:36.847Z,97157.88
2023-04-24T02:46:39.571Z,97150.94
2023-04-24T02:49:43.273Z,97152.84
2023-04-24T02:52:46.374Z,97161.38
2023-04-24T02:55:50.320Z,97148.38
2023-04-24T02:58:53.026Z,97129.25
2023-04-24T03:01:55.666Z,97141.91
2023-04-24T03:04:58.395Z,97129.38
2023-04-24T03:08:01.531Z,97131.75
2023-04-24T03:11:05.849Z,97124.25
2023-04-24T03:14:08.562Z,97127.28
2023-04-24T03:17:11.232Z,97132.00
2023-04-24T03:20:14.040Z,97122.81
2023-04-24T03:23:17.133Z,97127.25
2023-04-24T03:26:21.297Z,97126.00
2023-04-24T03:29:24.167Z,97127.09
2023-04-24T03:32:26.916Z,97125.66
2023-04-24T03:35:29.770Z,97121.22
2023-04-24T03:38:32.635Z,97107.72
2023-04-24T03:41:36.662Z,97113.91
2023-04-24T03:44:39.392Z,97120.91
2023-04-24T03:47:42.101Z,97119.28
2023-04-24T03:50:44.783Z,97120.84
2023-04-24T03:53:47.426Z,97117.97
2023-04-24T03:56:51.489Z,97129.84
2023-04-24T03:59:54.536Z,97122.69
2023-04-24T04:02:57.384Z,97129.94
2023-04-24T04:06:00.309Z,97132.22
2023-04-24T04:09:03.174Z,97134.47
2023-04-24T04:12:07.264Z,97139.34
2023-04-24T04:15:10.454Z,97160.34
2023-04-24T04:18:13.210Z,97169.31
2023-04-24T04:21:16.270Z,97208.00
2023-04-24T04:24:18.932Z,97205.00
2023-04-24T04:27:23.162Z,97206.69
2023-04-24T04:30:26.872Z,97200.84
2023-04-24T04:33:29.592Z,97200.09
2023-04-24T04:36:32.321Z,97205.13
2023-04-24T04:39:35.033Z,97214.75
2023-04-24T04:42:41.316Z,97209.59
2023-04-24T04:45:45.960Z,97215.16
2023-04-24T04:48:48.724Z,97226.00
2023-04-24T04:51:51.764Z,97233.72
2023-04-24T04:54:54.572Z,97233.53
2023-04-24T04:57:58.592Z,97238.59
2023-04-24T05:01:01.422Z,97241.41
2023-04-24T05:04:04.371Z,97252.06
2023-04-24T05:07:07.527Z,97257.75
2023-04-24T05:10:11.456Z,97271.50
2023-04-24T05:13:17.838Z,97278.94
2023-04-24T05:16:23.606Z,97275.38
2023-04-24T05:19:26.329Z,97277.13
2023-04-24T05:22:29.053Z,97280.13
2023-04-24T05:25:33.200Z,97281.75
2023-04-24T05:28:37.829Z,97281.63
2023-04-24T05:31:41.132Z,97290.69
2023-04-24T05:34:43.974Z,97287.28
2023-04-24T05:37:46.629Z,97300.59
2023-04-24T05:40:49.384Z,97309.34
2023-04-24T05:43:53.691Z,97315.63
2023-04-24T05:46:56.831Z,97316.22
2023-04-24T05:49:59.606Z,97325.56
2023-04-24T05:53:03.096Z,97325.41
2023-04-24T05:56:06.329Z,97326.28
2023-04-24T05:59:10.608Z,97332.66
2023-04-24T06:02:13.370Z,97332.84
2023-04-24T06:05:16.897Z,97335.34
2023-04-24T06:08:19.644Z,97339.41
2023-04-24T06:11:22.374Z,97338.16
2023-04-24T06:14:26.400Z,97336.53
2023-04-24T06:17:29.090Z,97334.34
2023-04-24T06:20:31.923Z,97334.81
2023-04-24T06:23:34.672Z,97334.25
2023-04-24T06:26:37.580Z,97339.03
2023-04-24T06:29:41.875Z,97331.56
2023-04-24T06:32:44.807Z,97328.69
2023-04-24T06:35:47.680Z,97332.78
2023-04-24T06:38:50.663Z,97335.06
2023-04-24T06:41:53.407Z,97340.19
2023-04-24T06:44:57.467Z,97341.00
2023-04-24T06:48:00.427Z,97334.69
2023-04-24T06:51:03.133Z,97331.81
2023-04-24T06:54:06.104Z,97336.56
2023-04-24T06:57:08.925Z,97338.97
2023-04-24T07:00:14.767Z,97343.56
2023-04-24T07:03:17.496Z,97332.13
2023-04-24T07:06:23.556Z,97331.16
2023-04-24T07:09:27.410Z,97328.50
2023-04-24T07:12:30.422Z,97334.72
2023-04-24T07:15:34.954Z,97333.59
2023-04-24T07:18:38.352Z,97338.44
2023-04-24T07:21:41.108Z,97349.97
2023-04-24T07:24:44.167Z,97352.78
2023-04-24T07:27:46.962Z,97358.78
2023-04-24T07:30:51.068Z,97356.16
2023-04-24T07:33:53.772Z,97357.81
2023-04-24T07:36:56.624Z,97352.47
2023-04-24T07:39:59.332Z,97347.06
2023-04-24T07:43:01.984Z,97362.34
2023-04-24T07:46:07.788Z,97375.66
2023-04-24T07:49:14.144Z,97373.78
2023-04-24T07:52:17.340Z,97372.34
2023-04-24T07:55:23.273Z,97373.88
2023-04-24T07:58:27.021Z,97373.06
2023-04-24T08:01:31.517Z,97388.84
2023-04-24T08:04:34.414Z,97396.44
2023-04-24T08:07:37.296Z,97389.31
2023-04-24T08:10:40.104Z,97393.91
2023-04-24T08:13:42.801Z,97401.06
2023-04-24T08:16:47.070Z,97409.63
2023-04-24T08:19:50.667Z,97408.97
2023-04-24T08:22:53.480Z,97417.31
2023-04-24T08:25:56.200Z,97409.19
2023-04-24T08:28:58.999Z,97419.47
2023-04-24T08:32:03.075Z,97420.16
2023-04-24T08:35:06.478Z,97424.31
2023-04-24T08:38:09.068Z,97419.72
2023-04-24T08:41:11.826Z,97435.41
2023-04-24T08:44:16.582Z,97441.38
2023-04-24T08:47:22.423Z,97452.75
2023-04-24T08:50:25.249Z,97455.56
2023-04-24T08:53:28.636Z,97453.13
2023-04-24T08:56:32.932Z,97454.53
2023-04-24T08:59:37.359Z,97457.91
2023-04-24T09:02:45.131Z,97459.25
2023-04-24T09:05:50.539Z,97456.56
2023-04-24T09:08:56.824Z,97462.91
2023-04-24T09:12:00.468Z,97469.75
2023-04-24T09:15:05.075Z,97472.16
2023-04-24T09:18:09.313Z,97483.00
2023-04-24T09:21:12.394Z,97495.94
2023-04-24T09:24:19.316Z,97495.63
2023-04-24T09:27:25.795Z,97491.09
2023-04-24T09:30:28.660Z,97491.09
2023-04-24T09:33:32.845Z,97494.47
2023-04-24T09:36:38.125Z,97498.63
2023-04-24T09:39:45.055Z,97488.31
2023-04-24T09:42:53.435Z,97502.41
2023-04-24T09:45:59.600Z,97489.19
2023-04-24T09:49:10.262Z,97506.00
2023-04-24T09:52:13.723Z,97514.06
2023-04-24T09:55:21.293Z,97515.34
2023-04-24T09:58:28.737Z,97526.44
2023-04-24T10:01:33.356Z,97528.63
2023-04-24T10:04:38.443Z,97524.38
2023-04-24T10:07:41.699Z,97520.41
2023-04-24T10:10:46.685Z,97518.56
2023-04-24T10:13:49.932Z,97507.59
2023-04-24T10:16:57.574Z,97513.78
2023-04-24T10:20:03.194Z,97512.03
2023-04-24T10:23:07.245Z,97515.84
2023-04-24T10:26:11.534Z,97517.28
2023-04-24T10:29:16.600Z,97520.91
2023-04-24T10:32:19.448Z,97528.63
2023-04-24T10:35:27.915Z,97531.69
2023-04-24T10:38:32.763Z,97536.97
2023-04-24T10:41:36.103Z,97542.88
2023-04-24T10:44:38.917Z,97540.75
2023-04-24T10:47:43.329Z,97533.28
2023-04-24T10:50:49.306Z,97549.13
2023-04-24T10:53:52.631Z,97554.84
2023-04-24T10:57:15.803Z,97554.03
2023-04-24T11:00:22.923Z,97554.72
2023-04-24T11:03:30.281Z,97557.22
2023-04-24T11:06:37.032Z,97556.38
2023-04-24T11:09:41.632Z,97561.41
2023-04-24T11:12:45.948Z,97569.03
2023-04-24T11:16:16.166Z,97572.78
2023-04-24T11:19:26.203Z,97571.34
2023-04-24T11:22:35.144Z,97575.91
2023-04-24T11:25:38.083Z,97575.41
2023-04-24T11:28:47.105Z,97569.34
2023-04-24T11:31:52.227Z,97574.50
2023-04-24T11:34:57.189Z,97579.41
2023-04-24T11:38:22.682Z,97574.34
2023-04-24T11:41:27.429Z,97585.88
2023-04-24T11:44:32.832Z,97579.28
2023-04-24T11:47:35.794Z,97592.03
2023-04-24T11:50:38.744Z,97583.59
2023-04-24T11:53:43.574Z,97590.13
2023-04-24T11:56:48.926Z,97594.19
2023-04-24T11:59:52.069Z,97591.00
2023-04-24T12:03:07.808Z,97585.41
2023-04-24T12:06:13.046Z,97581.94
2023-04-24T12:09:18.550Z,97594.03
2023-04-24T12:12:21.469Z,97590.22
2023-04-24T12:15:24.902Z,97598.44
2023-04-24T12:18:28.346Z,97598.84
2023-04-24T12:21:32.944Z,97592.09
2023-04-24T12:24:37.221Z,97596.56
2023-04-24T12:27:40.228Z,97602.59
2023-04-24T12:30:45.712Z,97593.53
2023-04-24T12:33:48.867Z,97604.59
2023-04-24T12:36:51.556Z,97601.47
2023-04-24T12:40:03.148Z,97607.47
2023-04-24T12:43:16.013Z,97592.75
2023-04-24T12:46:20.560Z,97605.41
2023-04-24T12:49:25.411Z,97602.22
2023-04-24T12:52:29.205Z,97620.13
2023-04-24T12:55:33.434Z,97624.69
2023-04-24T12:58:36.261Z,97634.31
2023-04-24T13:01:39.259Z,97619.84
2023-04-24T13:04:42.078Z,97626.16
2023-04-24T13:07:44.988Z,97613.91
2023-04-24T13:10:49.255Z,97627.06
2023-04-24T13:13:54.890Z,97621.50
2023-04-24T13:16:58.247Z,97632.13
2023-04-24T13:20:01.412Z,97626.84
2023-04-24T13:23:04.471Z,97618.50
2023-04-24T13:26:08.610Z,97621.97
2023-04-24T13:29:11.857Z,97620.53
2023-04-24T13:32:15.007Z,97617.75
2023-04-24T13:35:18.165Z,97608.69
2023-04-24T13:38:22.505Z,97616.53
2023-04-24T13:41:26.927Z,97625.84
2023-04-24T13:44:29.806Z,97619.63
2023-04-24T13:47:32.860Z,97630.78
2023-04-24T13:50:35.743Z,97624.34
2023-04-24T13:53:39.704Z,97628.28
2023-04-24T13:56:44.117Z,97621.16
2023-04-24T13:59:47.357Z,97626.19
2023-04-24T14:02:50.498Z,97621.44
2023-04-24T14:05:53.406Z,97632.88
2023-04-24T14:08:56.463Z,97614.38
2023-04-24T14:12:02.064Z,97616.75
2023-04-24T14:15:06.055Z,97614.97
2023-04-24T14:18:09.103Z,97609.41
2023-04-24T14:21:12.041Z,97612.84
2023-04-24T14:24:14.912Z,97616.88
2023-04-24T14:27:19.192Z,97609.88
2023-04-24T14:30:22.206Z,97608.66
2023-04-24T14:33:25.132Z,97616.13
2023-04-24T14:36:27.874Z,97614.78
2023-04-24T14:39:30.781Z,97624.44
2023-04-24T14:42:35.432Z,97620.44
2023-04-24T14:45:39.222Z,97626.72
2023-04-24T14:48:42.314Z,97625.28
2023-04-24T14:51:45.072Z,97606.53
2023-04-24T14:54:47.932Z,97606.38
2023-04-24T14:57:52.324Z,97606.44
2023-04-24T15:00:55.563Z,97601.59
2023-04-24T15:03:58.827Z,97602.25
2023-04-24T15:07:01.845Z,97606.56
2023-04-24T15:10:05.564Z,97608.91
2023-04-24T15:13:10.095Z,97605.78
2023-04-24T15:16:13.078Z,97608.88
2023-04-24T15:19:15.939Z,97616.88
2023-04-24T15:22:18.782Z,97626.47
2023-04-24T15:25:21.609Z,97633.81
2023-04-24T15:28:26.937Z,97636.44
2023-04-24T15:31:29.798Z,97626.94
2023-04-24T15:34:33.094Z,97632.88
2023-04-24T15:37:36.013Z,97630.69
2023-04-24T15:40:39.103Z,97628.31
2023-04-24T15:43:44.117Z,97630.16
2023-04-24T15:46:46.898Z,97619.72
2023-04-24T15:49:49.663Z,97614.22
2023-04-24T15:52:52.381Z,97622.41
2023-04-24T15:55:57.172Z,97609.53
2023-04-24T15:59:01.513Z,97602.28
2023-04-24T16:02:04.971Z,97600.09
2023-04-24T16:05:08.883Z,97601.28
2023-04-24T16:08:11.682Z,97610.88
2023-04-24T16:11:14.416Z,97608.41
2023-04-24T16:14:18.479Z,97603.38
2023-04-24T16:17:21.230Z,97606.06
2023-04-24T16:20:24.139Z,97608.78
2023-04-24T16:23:27.109Z,97608.25
2023-04-24T16:26:29.880Z,97601.75
2023-04-24T16:29:34.043Z,97610.16
2023-04-24T16:32:36.866Z,97593.78
2023-04-24T16:35:39.864Z,97605.41
2023-04-24T16:38:43.517Z,97605.72
2023-04-24T16:41:47.030Z,97602.00
2023-04-24T16:44:52.106Z,97610.13
2023-04-24T16:48:04.473Z,97601.38
2023-04-24T16:51:08.483Z,97607.53
2023-04-24T16:54:11.857Z,97605.75
2023-04-24T16:57:16.274Z,97597.88
2023-04-24T17:00:20.846Z,97594.13
2023-04-24T17:03:23.913Z,97600.72
2023-04-24T17:06:26.785Z,97603.25
2023-04-24T17:09:29.640Z,97600.09
2023-04-24T17:12:32.449Z,97606.56
2023-04-24T17:15:36.602Z,97609.88
2023-04-24T17:18:39.520Z,97602.59
2023-04-24T17:21:42.511Z,97600.59
2023-04-24T17:24:45.402Z,97596.59
2023-04-24T17:27:48.374Z,97602.41
2023-04-24T17:30:54.543Z,97596.66
2023-04-24T17:33:57.641Z,97602.09
2023-04-24T17:37:00.531Z,97602.97
2023-04-24T17:40:04.307Z,97596.59
2023-04-24T17:43:07.118Z,97604.50
2023-04-24T17:46:11.301Z,97602.41
2023-04-24T17:49:14.122Z,97603.56
2023-04-24T17:52:17.715Z,97611.56
2023-04-24T17:55:20.920Z,97607.78
2023-04-24T17:58:23.801Z,97611.63
2023-04-24T18:01:29.105Z,97609.34
2023-04-24T18:04:32.118Z,97615.63
2023-04-24T18:07:35.057Z,97616.03
2023-04-24T18:10:38.035Z,97610.47
2023-04-24T18:13:42.054Z,97617.16
2023-04-24T18:16:46.393Z,97622.47
2023-04-24T18:19:49.241Z,97625.44
2023-04-24T18:22:51.993Z,97636.63
2023-04-24T18:25:55.297Z,97627.44
2023-04-24T18:28:58.099Z,97634.41
2023-04-24T18:32:04.908Z,97646.75
2023-04-24T18:35:08.279Z,97634.13
2023-04-24T18:38:11.189Z,97638.00
2023-04-24T18:41:14.540Z,97633.31
2023-04-24T18:44:17.295Z,97638.31
2023-04-24T18:47:21.867Z,97641.88
2023-04-24T18:50:25.724Z,97630.13
2023-04-24T18:53:28.546Z,97646.19
2023-04-24T18:56:31.378Z,97651.25
2023-04-24T18:59:34.212Z,97651.56
2023-04-24T19:02:38.624Z,97650.44
2023-04-24T19:05:41.481Z,97653.13
2023-04-24T19:08:44.899Z,97647.25
2023-04-24T19:11:47.746Z,97656.25
2023-04-24T19:14:51.546Z,97653.81
2023-04-24T19:17:55.774Z,97661.63
2023-04-24T19:20:59.025Z,97672.16
2023-04-24T19:24:02.121Z,97668.97
2023-04-24T19:27:04.844Z,97676.63
2023-04-24T19:30:08.972Z,97672.03
2023-04-24T19:33:13.213Z,97677.78
2023-04-24T19:36:17.742Z,97672.06
2023-04-24T19:39:20.593Z,97675.16
2023-04-24T19:42:35.905Z,97680.69
2023-04-24T19:45:45.331Z,97674.59
2023-04-24T19:48:49.893Z,97685.03
2023-04-24T19:51:52.872Z,97682.88
2023-04-24T19:54:56.084Z,97678.31
2023-04-24T19:57:58.823Z,97675.63
2023-04-24T20:01:01.901Z,97680.53
2023-04-24T20:04:07.756Z,97674.72
2023-04-24T20:07:10.890Z,97682.06
2023-04-24T20:10:13.701Z,97678.09
2023-04-24T20:13:16.641Z,97672.31
2023-04-24T20:16:19.594Z,97684.38
2023-04-24T20:19:23.780Z,97685.47
2023-04-24T20:22:26.661Z,97678.81
2023-04-24T20:25:29.451Z,97681.84
2023-04-24T20:28:32.112Z,97675.31
2023-04-24T20:31:34.900Z,97686.56
2023-04-24T20:34:38.922Z,97683.25
2023-04-24T20:37:42.395Z,97682.59
2023-04-24T20:40:57.112Z,97677.84
2023-04-24T20:44:01.583Z,97676.75
2023-04-24T20:47:04.838Z,97666.38
2023-04-24T20:50:10.382Z,97672.03
2023-04-24T20:53:13.212Z,97662.16
2023-04-24T20:56:16.445Z,97666.59
2023-04-24T20:59:19.216Z,97666.75
2023-04-24T21:02:22.103Z,97663.56
2023-04-24T21:05:26.197Z,97666.38
2023-04-24T21:08:29.268Z,97668.59
2023-04-24T21:11:32.137Z,97669.75
2023-04-24T21:14:34.961Z,97666.41
2023-04-24T21:17:37.877Z,97669.59
2023-04-24T21:20:41.973Z,97669.09
2023-04-24T21:23:44.770Z,97665.44
2023-04-24T21:26:47.828Z,97668.19
2023-04-24T21:29:50.767Z,97665.56
2023-04-24T21:32:53.943Z,97663.00
2023-04-24T21:35:58.215Z,97662.16
2023-04-24T21:39:00.951Z,97658.25
2023-04-24T21:42:03.875Z,97664.72
2023-04-24T21:45:07.651Z,97658.63
2023-04-24T21:48:10.766Z,97654.31
2023-04-24T21:51:16.614Z,97657.06
2023-04-24T21:54:20.500Z,97652.03
2023-04-24T21:57:23.182Z,97649.63
2023-04-24T22:00:26.072Z,97642.94
2023-04-24T22:03:29.734Z,97644.78
2023-04-24T22:06:34.919Z,97635.97
2023-04-24T22:09:37.576Z,97633.56
2023-04-24T22:12:40.346Z,97629.53
2023-04-24T22:15:43.059Z,97620.09
2023-04-24T22:18:47.707Z,97621.13
2023-04-24T22:21:52.045Z,97612.56
2023-04-24T22:24:55.642Z,97614.22
2023-04-24T22:27:58.288Z,97610.69
2023-04-24T22:31:01.245Z,97614.22
2023-04-24T22:34:04.074Z,97604.84
2023-04-24T22:37:08.820Z,97597.84
2023-04-24T22:40:12.405Z,97598.66
2023-04-24T22:43:15.220Z,97594.34
2023-04-24T22:46:18.362Z,97594.63
2023-04-24T22:49:21.548Z,97591.34
2023-04-24T22:52:26.196Z,97600.16
2023-04-24T22:55:29.236Z,97600.72
2023-04-24T22:58:32.034Z,97597.44
2023-04-24T23:01:34.745Z,97596.63
2023-04-24T23:04:37.549Z,97597.22
2023-04-24T23:07:41.836Z,97599.81
2023-04-24T23:10:44.629Z,97597.44
2023-04-24T23:13:47.518Z,97597.69
2023-04-24T23:16:50.444Z,97603.06
2023-04-24T23:19:53.155Z,97602.09
2023-04-24T23:22:57.454Z,97602.56
2023-04-24T23:26:00.868Z,97606.25
2023-04-24T23:29:03.665Z,97594.00
2023-04-24T23:32:06.895Z,97600.59
2023-04-24T23:35:10.395Z,97597.97
2023-04-24T23:38:14.411Z,97587.72
2023-04-24T23:41:17.085Z,97593.00
2023-04-24T23:44:19.834Z,97593.38
2023-04-24T23:47:22.728Z,97590.44
2023-04-24T23:50:25.932Z,97595.34
2023-04-24T23:53:30.655Z,97587.66
2023-04-24T23:56:33.354Z,97586.56
2023-04-24T23:59:36.426Z,97581.50
